createdAt,value
2019-04-28T00:00:52.965Z,0.00
2019-04-28T00:01:52.505Z,0.00
2019-04-28T00:02:52.490Z,0.00
2019-04-28T00:03:52.495Z,0.00
2019-04-28T00:04:52.483Z,0.00
2019-04-28T00:05:52.478Z,0.00
2019-04-28T00:06:53.306Z,0.00
2019-04-28T00:07:52.883Z,0.00
2019-04-28T00:08:52.450Z,0.00
2019-04-28T00:09:52.451Z,0.00
2019-04-28T00:10:53.351Z,0.00
2019-04-28T00:11:52.430Z,0.00
2019-04-28T00:12:52.425Z,0.00
2019-04-28T00:13:53.624Z,0.00
2019-04-28T00:14:52.410Z,0.00
2019-04-28T00:15:52.411Z,0.00
2019-04-28T00:16:52.404Z,0.00
2019-04-28T00:17:52.397Z,0.00
2019-04-28T00:18:52.389Z,0.00
2019-04-28T00:19:52.384Z,0.00
2019-04-28T00:20:52.376Z,0.00
2019-04-28T00:21:52.374Z,0.00
2019-04-28T00:22:52.360Z,0.00
2019-04-28T00:23:52.361Z,0.00
2019-04-28T00:24:52.355Z,0.00
2019-04-28T00:25:52.346Z,0.00
2019-04-28T00:26:52.332Z,0.00
2019-04-28T00:27:52.331Z,0.00
2019-04-28T00:28:52.326Z,0.00
2019-04-28T00:29:52.323Z,0.00
2019-04-28T00:30:52.312Z,0.00
2019-04-28T00:31:52.297Z,0.00
2019-04-28T00:32:52.297Z,0.00
2019-04-28T00:33:52.291Z,0.00
2019-04-28T00:34:52.285Z,0.00
2019-04-28T00:35:52.274Z,0.00
2019-04-28T00:36:52.269Z,0.00
2019-04-28T00:37:52.268Z,0.00
2019-04-28T00:38:52.254Z,0.00
2019-04-28T00:39:52.257Z,0.00
2019-04-28T00:40:52.805Z,0.00
2019-04-28T00:41:52.240Z,0.00
2019-04-28T00:42:52.237Z,0.00
2019-04-28T00:43:52.225Z,0.00
2019-04-28T00:44:52.220Z,0.00
2019-04-28T00:45:52.221Z,0.00
2019-04-28T00:46:52.206Z,0.00
2019-04-28T00:47:52.194Z,0.00
2019-04-28T00:48:52.192Z,0.00
2019-04-28T00:49:52.196Z,0.00
2019-04-28T00:50:52.178Z,0.00
2019-04-28T00:51:52.174Z,0.00
2019-04-28T00:52:52.170Z,0.00
2019-04-28T00:53:52.168Z,0.00
2019-04-28T00:54:52.748Z,0.00
2019-04-28T00:55:54.056Z,0.00
2019-04-28T00:56:52.135Z,0.00
2019-04-28T00:57:52.136Z,0.00
2019-04-28T00:58:54.130Z,0.00
2019-04-28T00:59:58.136Z,0.00
2019-04-28T01:00:52.118Z,0.00
2019-04-28T01:01:52.117Z,0.00
2019-04-28T01:02:52.109Z,0.00
2019-04-28T01:03:52.107Z,0.00
2019-04-28T01:04:52.094Z,0.00
2019-04-28T01:05:52.087Z,0.00
2019-04-28T01:06:52.213Z,0.00
2019-04-28T01:07:52.067Z,0.00
2019-04-28T01:08:52.061Z,0.00
2019-04-28T01:09:52.058Z,0.00
2019-04-28T01:10:52.048Z,0.00
2019-04-28T01:11:53.399Z,0.00
2019-04-28T01:12:52.037Z,0.00
2019-04-28T01:13:52.030Z,0.00
2019-04-28T01:14:54.863Z,0.00
2019-04-28T01:15:52.031Z,0.00
2019-04-28T01:16:52.014Z,0.00
2019-04-28T01:17:52.008Z,0.00
2019-04-28T01:18:52.001Z,0.00
2019-04-28T01:19:51.993Z,0.00
2019-04-28T01:20:51.987Z,0.00
2019-04-28T01:21:51.974Z,0.00
2019-04-28T01:22:51.970Z,0.00
2019-04-28T01:23:51.969Z,0.00
2019-04-28T01:24:51.963Z,0.00
2019-04-28T01:25:51.952Z,0.00
2019-04-28T01:26:51.946Z,0.00
2019-04-28T01:27:51.933Z,0.00
2019-04-28T01:28:51.928Z,0.00
2019-04-28T01:30:05.171Z,0.00
2019-04-28T01:30:51.928Z,0.00
2019-04-28T01:31:51.908Z,0.00
2019-04-28T01:32:51.902Z,0.00
2019-04-28T01:33:51.897Z,0.00
2019-04-28T01:34:51.896Z,0.00
2019-04-28T01:35:51.888Z,0.00
2019-04-28T01:36:52.118Z,0.00
2019-04-28T01:37:51.875Z,0.00
2019-04-28T01:38:51.866Z,0.00
2019-04-28T01:39:51.855Z,0.00
2019-04-28T01:40:51.854Z,0.00
2019-04-28T01:41:51.844Z,0.00
2019-04-28T01:42:51.846Z,0.00
2019-04-28T01:43:52.317Z,0.00
2019-04-28T01:44:51.835Z,0.00
2019-04-28T01:45:51.849Z,0.00
2019-04-28T01:46:51.822Z,0.00
2019-04-28T01:47:51.808Z,0.00
2019-04-28T01:48:51.807Z,0.00
2019-04-28T01:49:51.804Z,0.00
2019-04-28T01:50:51.796Z,0.00
2019-04-28T01:51:51.775Z,0.00
2019-04-28T01:52:51.767Z,0.00
2019-04-28T01:53:51.770Z,0.00
2019-04-28T01:54:51.755Z,0.00
2019-04-28T01:55:51.762Z,0.00
2019-04-28T01:56:51.754Z,0.00
2019-04-28T01:57:51.746Z,0.00
2019-04-28T01:58:51.811Z,0.00
2019-04-28T01:59:51.729Z,0.00
2019-04-28T02:00:51.715Z,0.00
2019-04-28T02:01:51.716Z,0.00
2019-04-28T02:02:51.707Z,0.00
2019-04-28T02:03:51.704Z,0.00
2019-04-28T02:04:51.713Z,0.00
2019-04-28T02:05:51.690Z,0.00
2019-04-28T02:06:51.680Z,0.00
2019-04-28T02:07:51.676Z,0.00
2019-04-28T02:08:51.669Z,0.00
2019-04-28T02:09:51.666Z,0.00
2019-04-28T02:10:51.657Z,0.00
2019-04-28T02:11:51.645Z,0.00
2019-04-28T02:12:51.662Z,0.00
2019-04-28T02:13:51.634Z,0.00
2019-04-28T02:14:52.145Z,0.00
2019-04-28T02:15:51.622Z,0.00
2019-04-28T02:16:51.620Z,0.00
2019-04-28T02:17:51.720Z,0.00
2019-04-28T02:18:51.602Z,0.00
2019-04-28T02:19:51.689Z,0.00
2019-04-28T02:20:51.604Z,0.00
2019-04-28T02:21:51.587Z,0.00
2019-04-28T02:22:51.574Z,0.00
2019-04-28T02:23:51.568Z,0.00
2019-04-28T02:24:51.556Z,0.00
2019-04-28T02:25:51.554Z,0.00
2019-04-28T02:26:52.736Z,0.00
2019-04-28T02:27:51.550Z,0.00
2019-04-28T02:28:51.538Z,0.00
2019-04-28T02:29:51.538Z,0.00
2019-04-28T02:30:53.867Z,0.00
2019-04-28T02:31:51.513Z,0.00
2019-04-28T02:32:51.977Z,0.00
2019-04-28T02:33:53.900Z,0.00
2019-04-28T02:34:51.504Z,0.00
2019-04-28T02:35:51.504Z,0.00
2019-04-28T02:36:53.926Z,0.00
2019-04-28T02:37:51.470Z,0.00
2019-04-28T02:38:51.594Z,0.00
2019-04-28T02:39:51.462Z,0.00
2019-04-28T02:40:51.462Z,0.00
2019-04-28T02:41:51.450Z,0.00
2019-04-28T02:42:52.324Z,0.00
2019-04-28T02:43:51.440Z,0.00
2019-04-28T02:44:51.452Z,0.00
2019-04-28T02:45:53.472Z,0.00
2019-04-28T02:46:51.417Z,0.00
2019-04-28T02:47:52.249Z,0.00
2019-04-28T02:48:54.119Z,0.00
2019-04-28T02:49:51.393Z,0.00
2019-04-28T02:50:51.388Z,0.00
2019-04-28T02:51:51.392Z,0.00
2019-04-28T02:52:52.035Z,0.00
2019-04-28T02:53:51.488Z,0.00
2019-04-28T02:54:51.370Z,0.00
2019-04-28T02:55:51.584Z,0.00
2019-04-28T02:56:51.344Z,0.00
2019-04-28T02:57:51.822Z,0.00
2019-04-28T02:58:51.350Z,0.00
2019-04-28T02:59:51.334Z,0.00
2019-04-28T03:01:02.830Z,0.00
2019-04-28T03:01:51.320Z,0.00
2019-04-28T03:02:51.617Z,0.00
2019-04-28T03:03:51.303Z,0.00
2019-04-28T03:04:51.312Z,0.00
2019-04-28T03:05:51.502Z,0.00
2019-04-28T03:06:51.930Z,0.00
2019-04-28T03:07:51.794Z,0.00
2019-04-28T03:08:51.265Z,0.00
2019-04-28T03:09:52.258Z,0.00
2019-04-28T03:10:51.252Z,0.00
2019-04-28T03:11:51.330Z,0.00
2019-04-28T03:12:51.889Z,0.00
2019-04-28T03:13:51.322Z,0.00
2019-04-28T03:14:51.232Z,0.00
2019-04-28T03:15:51.809Z,0.00
2019-04-28T03:16:51.217Z,0.00
2019-04-28T03:17:53.137Z,0.00
2019-04-28T03:18:51.587Z,0.00
2019-04-28T03:19:51.767Z,0.00
2019-04-28T03:20:51.763Z,0.00
2019-04-28T03:21:51.277Z,0.00
2019-04-28T03:22:51.385Z,0.00
2019-04-28T03:23:51.862Z,0.00
2019-04-28T03:24:51.261Z,0.00
2019-04-28T03:25:51.156Z,0.00
2019-04-28T03:26:51.149Z,0.00
2019-04-28T03:27:51.138Z,0.00
2019-04-28T03:28:51.523Z,0.00
2019-04-28T03:29:52.563Z,0.00
2019-04-28T03:30:53.910Z,0.00
2019-04-28T03:32:15.934Z,0.00
2019-04-28T03:32:59.066Z,0.00
2019-04-28T03:33:55.382Z,0.00
2019-04-28T03:34:53.854Z,0.00
2019-04-28T03:35:53.597Z,0.00
2019-04-28T03:36:51.779Z,0.00
2019-04-28T03:37:51.352Z,0.00
2019-04-28T03:38:53.148Z,0.00
2019-04-28T03:39:51.054Z,0.00
2019-04-28T03:40:51.396Z,0.00
2019-04-28T03:41:51.044Z,0.00
2019-04-28T03:42:51.405Z,0.00
2019-04-28T03:43:51.513Z,0.00
2019-04-28T03:44:51.416Z,0.00
2019-04-28T03:45:51.023Z,0.00
2019-04-28T03:46:51.336Z,0.00
2019-04-28T03:47:51.104Z,4.00
2019-04-28T03:48:51.208Z,4.00
2019-04-28T03:49:51.029Z,4.00
2019-04-28T03:50:51.462Z,4.00
2019-04-28T03:51:50.989Z,4.00
2019-04-28T03:52:51.311Z,4.00
2019-04-28T03:53:50.964Z,4.00
2019-04-28T03:54:51.310Z,8.00
2019-04-28T03:55:51.458Z,4.00
2019-04-28T03:56:53.710Z,4.00
2019-04-28T03:57:51.174Z,4.00
2019-04-28T03:58:50.945Z,8.00
2019-04-28T03:59:51.441Z,4.00
2019-04-28T04:00:50.966Z,4.00
2019-04-28T04:01:56.555Z,4.00
2019-04-28T04:02:50.900Z,8.00
2019-04-28T04:03:51.780Z,8.00
2019-04-28T04:04:52.690Z,4.00
2019-04-28T04:05:51.169Z,8.00
2019-04-28T04:06:51.000Z,8.00
2019-04-28T04:07:50.896Z,8.00
2019-04-28T04:08:50.861Z,8.00
2019-04-28T04:09:51.419Z,8.00
2019-04-28T04:10:50.857Z,8.00
2019-04-28T04:11:50.929Z,8.00
2019-04-28T04:12:51.137Z,12.00
2019-04-28T04:13:51.450Z,12.00
2019-04-28T04:14:50.896Z,12.00
2019-04-28T04:15:53.996Z,8.00
2019-04-28T04:16:50.812Z,8.00
2019-04-28T04:17:51.019Z,8.00
2019-04-28T04:18:53.626Z,12.00
2019-04-28T04:19:50.788Z,12.00
2019-04-28T04:20:51.299Z,12.00
2019-04-28T04:21:52.791Z,12.00
2019-04-28T04:22:51.303Z,16.00
2019-04-28T04:23:51.103Z,16.00
2019-04-28T04:24:52.456Z,12.00
2019-04-28T04:25:51.348Z,12.00
2019-04-28T04:26:50.740Z,16.00
2019-04-28T04:27:50.737Z,16.00
2019-04-28T04:28:51.472Z,20.00
2019-04-28T04:29:51.009Z,20.00
2019-04-28T04:30:51.020Z,20.00
2019-04-28T04:31:51.280Z,20.00
2019-04-28T04:32:50.822Z,20.00
2019-04-28T04:33:50.904Z,20.00
2019-04-28T04:34:50.728Z,16.00
2019-04-28T04:35:51.751Z,12.00
2019-04-28T04:36:51.021Z,20.00
2019-04-28T04:37:50.666Z,20.00
2019-04-28T04:38:51.453Z,20.00
2019-04-28T04:39:51.393Z,20.00
2019-04-28T04:40:51.262Z,20.00
2019-04-28T04:41:50.650Z,16.00
2019-04-28T04:42:50.633Z,16.00
2019-04-28T04:43:51.522Z,20.00
2019-04-28T04:44:50.613Z,24.00
2019-04-28T04:45:50.625Z,28.00
2019-04-28T04:46:50.993Z,28.00
2019-04-28T04:47:50.605Z,32.00
2019-04-28T04:48:50.943Z,44.00
2019-04-28T04:49:50.621Z,52.00
2019-04-28T04:50:51.141Z,64.00
2019-04-28T04:51:50.963Z,92.00
2019-04-28T04:52:50.559Z,84.00
2019-04-28T04:53:51.211Z,80.00
2019-04-28T04:54:51.150Z,88.00
2019-04-28T04:55:52.610Z,84.00
2019-04-28T04:56:50.536Z,76.00
2019-04-28T04:57:50.776Z,72.00
2019-04-28T04:58:50.831Z,76.00
2019-04-28T04:59:50.521Z,88.00
2019-04-28T05:00:51.027Z,96.00
2019-04-28T05:01:50.509Z,104.00
2019-04-28T05:02:52.970Z,88.00
2019-04-28T05:03:50.482Z,76.00
2019-04-28T05:04:50.678Z,92.00
2019-04-28T05:05:50.471Z,96.00
2019-04-28T05:06:50.464Z,124.00
2019-04-28T05:07:50.792Z,112.00
2019-04-28T05:08:50.452Z,88.00
2019-04-28T05:09:50.461Z,100.00
2019-04-28T05:10:50.521Z,76.00
2019-04-28T05:11:50.436Z,48.00
2019-04-28T05:12:51.783Z,44.00
2019-04-28T05:13:50.419Z,52.00
2019-04-28T05:14:50.416Z,44.00
2019-04-28T05:15:50.761Z,52.00
2019-04-28T05:16:50.403Z,60.00
2019-04-28T05:17:50.385Z,64.00
2019-04-28T05:18:50.381Z,72.00
2019-04-28T05:19:50.378Z,92.00
2019-04-28T05:20:50.500Z,72.00
2019-04-28T05:21:50.365Z,84.00
2019-04-28T05:22:50.631Z,76.00
2019-04-28T05:23:51.062Z,56.00
2019-04-28T05:24:51.138Z,56.00
2019-04-28T05:25:50.336Z,64.00
2019-04-28T05:26:51.624Z,72.00
2019-04-28T05:27:50.324Z,52.00
2019-04-28T05:28:53.252Z,56.00
2019-04-28T05:29:51.319Z,56.00
2019-04-28T05:30:50.339Z,36.00
2019-04-28T05:31:50.515Z,44.00
2019-04-28T05:32:56.192Z,40.00
2019-04-28T05:33:50.291Z,44.00
2019-04-28T05:34:52.751Z,52.00
2019-04-28T05:35:50.263Z,44.00
2019-04-28T05:36:50.592Z,52.00
2019-04-28T05:37:50.257Z,56.00
2019-04-28T05:38:50.245Z,60.00
2019-04-28T05:39:52.574Z,68.00
2019-04-28T05:40:50.239Z,76.00
2019-04-28T05:41:50.562Z,84.00
2019-04-28T05:42:50.222Z,92.00
2019-04-28T05:43:50.502Z,76.00
2019-04-28T05:44:50.201Z,80.00
2019-04-28T05:45:50.205Z,80.00
2019-04-28T05:46:50.795Z,92.00
2019-04-28T05:47:51.953Z,92.00
2019-04-28T05:48:51.314Z,80.00
2019-04-28T05:49:51.410Z,80.00
2019-04-28T05:50:50.168Z,96.00
2019-04-28T05:51:50.517Z,100.00
2019-04-28T05:52:50.253Z,112.00
2019-04-28T05:53:52.266Z,128.00
2019-04-28T05:54:50.144Z,116.00
2019-04-28T05:55:50.278Z,116.00
2019-04-28T05:56:50.132Z,116.00
2019-04-28T05:57:53.005Z,116.00
2019-04-28T05:58:50.525Z,112.00
2019-04-28T05:59:50.666Z,112.00
2019-04-28T06:00:50.112Z,132.00
2019-04-28T06:01:50.614Z,140.00
2019-04-28T06:02:56.410Z,152.00
2019-04-28T06:03:50.088Z,144.00
2019-04-28T06:04:50.078Z,144.00
2019-04-28T06:05:50.068Z,152.00
2019-04-28T06:06:50.061Z,168.00
2019-04-28T06:07:50.051Z,164.00
2019-04-28T06:08:51.025Z,176.00
2019-04-28T06:09:50.173Z,176.00
2019-04-28T06:10:50.034Z,176.00
2019-04-28T06:11:50.037Z,180.00
2019-04-28T06:12:50.030Z,200.00
2019-04-28T06:13:50.091Z,200.00
2019-04-28T06:14:50.288Z,220.00
2019-04-28T06:15:49.994Z,224.00
2019-04-28T06:16:50.669Z,220.00
2019-04-28T06:17:49.988Z,220.00
2019-04-28T06:18:50.095Z,252.00
2019-04-28T06:19:50.531Z,280.00
2019-04-28T06:20:49.965Z,316.00
2019-04-28T06:21:49.960Z,288.00
2019-04-28T06:22:49.951Z,264.00
2019-04-28T06:23:49.947Z,296.00
2019-04-28T06:24:49.941Z,332.00
2019-04-28T06:25:49.935Z,348.00
2019-04-28T06:26:49.932Z,356.00
2019-04-28T06:27:49.919Z,340.00
2019-04-28T06:28:49.911Z,444.00
2019-04-28T06:29:49.919Z,496.00
2019-04-28T06:30:49.895Z,496.00
2019-04-28T06:31:49.900Z,548.00
2019-04-28T06:32:49.892Z,480.00
2019-04-28T06:33:49.884Z,432.00
2019-04-28T06:34:49.875Z,376.00
2019-04-28T06:35:49.933Z,348.00
2019-04-28T06:36:49.925Z,380.00
2019-04-28T06:37:49.866Z,384.00
2019-04-28T06:38:49.854Z,384.00
2019-04-28T06:39:49.837Z,384.00
2019-04-28T06:40:49.832Z,356.00
2019-04-28T06:41:49.832Z,372.00
2019-04-28T06:42:49.827Z,424.00
2019-04-28T06:43:49.816Z,472.00
2019-04-28T06:44:49.844Z,496.00
2019-04-28T06:45:49.817Z,472.00
2019-04-28T06:46:49.799Z,456.00
2019-04-28T06:47:49.786Z,504.00
2019-04-28T06:48:49.781Z,452.00
2019-04-28T06:49:49.783Z,388.00
2019-04-28T06:50:49.776Z,384.00
2019-04-28T06:51:49.761Z,380.00
2019-04-28T06:52:49.765Z,328.00
2019-04-28T06:53:49.747Z,324.00
2019-04-28T06:54:49.739Z,348.00
2019-04-28T06:55:49.739Z,288.00
2019-04-28T06:56:49.739Z,308.00
2019-04-28T06:57:49.728Z,340.00
2019-04-28T06:58:58.981Z,328.00
2019-04-28T06:59:49.713Z,296.00
2019-04-28T07:00:49.708Z,248.00
2019-04-28T07:01:49.696Z,236.00
2019-04-28T07:02:49.691Z,224.00
2019-04-28T07:03:49.690Z,216.00
2019-04-28T07:05:01.251Z,204.00
2019-04-28T07:05:49.668Z,244.00
2019-04-28T07:06:49.665Z,216.00
2019-04-28T07:07:49.668Z,224.00
2019-04-28T07:08:49.657Z,276.00
2019-04-28T07:09:49.648Z,280.00
2019-04-28T07:10:49.641Z,304.00
2019-04-28T07:11:49.635Z,276.00
2019-04-28T07:12:49.631Z,256.00
2019-04-28T07:13:49.617Z,228.00
2019-04-28T07:14:49.620Z,212.00
2019-04-28T07:15:49.616Z,232.00
2019-04-28T07:16:49.607Z,248.00
2019-04-28T07:17:49.610Z,252.00
2019-04-28T07:18:49.726Z,220.00
2019-04-28T07:19:49.579Z,220.00
2019-04-28T07:20:49.580Z,236.00
2019-04-28T07:21:49.572Z,204.00
2019-04-28T07:22:49.571Z,208.00
2019-04-28T07:23:49.551Z,216.00
2019-04-28T07:24:49.547Z,196.00
2019-04-28T07:25:49.543Z,212.00
2019-04-28T07:26:49.533Z,264.00
2019-04-28T07:27:49.535Z,340.00
2019-04-28T07:28:49.539Z,284.00
2019-04-28T07:29:49.532Z,292.00
2019-04-28T07:30:49.584Z,356.00
2019-04-28T07:31:49.537Z,316.00
2019-04-28T07:32:49.506Z,380.00
2019-04-28T07:33:49.489Z,380.00
2019-04-28T07:34:49.498Z,364.00
2019-04-28T07:35:49.531Z,468.00
2019-04-28T07:36:49.490Z,440.00
2019-04-28T07:37:49.480Z,356.00
2019-04-28T07:38:49.459Z,292.00
2019-04-28T07:39:49.461Z,284.00
2019-04-28T07:40:49.449Z,280.00
2019-04-28T07:41:49.441Z,284.00
2019-04-28T07:42:49.438Z,276.00
2019-04-28T07:43:49.427Z,216.00
2019-04-28T07:44:49.422Z,204.00
2019-04-28T07:45:49.412Z,280.00
2019-04-28T07:46:49.405Z,296.00
2019-04-28T07:47:49.403Z,252.00
2019-04-28T07:48:52.238Z,232.00
2019-04-28T07:49:49.402Z,216.00
2019-04-28T07:50:49.383Z,212.00
2019-04-28T07:51:49.374Z,188.00
2019-04-28T07:52:49.363Z,164.00
2019-04-28T07:53:49.363Z,144.00
2019-04-28T07:54:49.364Z,164.00
2019-04-28T07:55:49.344Z,220.00
2019-04-28T07:56:49.337Z,220.00
2019-04-28T07:57:49.333Z,252.00
2019-04-28T07:58:49.332Z,268.00
2019-04-28T07:59:49.376Z,308.00
2019-04-28T08:00:49.317Z,448.00
2019-04-28T08:01:49.318Z,424.00
2019-04-28T08:02:49.304Z,412.00
2019-04-28T08:03:50.088Z,352.00
2019-04-28T08:04:49.287Z,360.00
2019-04-28T08:05:49.281Z,488.00
2019-04-28T08:06:49.282Z,544.00
2019-04-28T08:07:49.279Z,572.00
2019-04-28T08:08:49.266Z,628.00
2019-04-28T08:09:49.255Z,664.00
2019-04-28T08:10:49.249Z,628.00
2019-04-28T08:11:49.246Z,560.00
2019-04-28T08:12:49.321Z,632.00
2019-04-28T08:13:49.234Z,704.00
2019-04-28T08:14:49.232Z,568.00
2019-04-28T08:15:49.216Z,580.00
2019-04-28T08:16:49.218Z,692.00
2019-04-28T08:17:49.207Z,596.00
2019-04-28T08:18:49.198Z,592.00
2019-04-28T08:19:49.196Z,656.00
2019-04-28T08:20:49.198Z,708.00
2019-04-28T08:21:49.194Z,652.00
2019-04-28T08:22:49.175Z,592.00
2019-04-28T08:23:49.170Z,544.00
2019-04-28T08:24:49.160Z,548.00
2019-04-28T08:25:49.160Z,544.00
2019-04-28T08:26:49.152Z,532.00
2019-04-28T08:27:49.149Z,536.00
2019-04-28T08:28:49.132Z,600.00
2019-04-28T08:29:58.385Z,624.00
2019-04-28T08:30:49.178Z,656.00
2019-04-28T08:31:49.123Z,752.00
2019-04-28T08:32:49.128Z,792.00
2019-04-28T08:34:01.269Z,828.00
2019-04-28T08:34:49.119Z,892.00
2019-04-28T08:35:49.107Z,960.00
2019-04-28T08:36:49.090Z,1056.00
2019-04-28T08:37:49.082Z,1112.00
2019-04-28T08:38:49.072Z,1196.00
2019-04-28T08:39:49.084Z,1152.00
2019-04-28T08:40:49.081Z,1128.00
2019-04-28T08:41:49.061Z,1124.00
2019-04-28T08:42:49.056Z,1100.00
2019-04-28T08:43:49.334Z,1076.00
2019-04-28T08:44:49.091Z,1040.00
2019-04-28T08:45:49.046Z,992.00
2019-04-28T08:46:49.029Z,844.00
2019-04-28T08:47:49.057Z,828.00
2019-04-28T08:48:49.111Z,892.00
2019-04-28T08:49:49.007Z,928.00
2019-04-28T08:50:49.008Z,844.00
2019-04-28T08:51:49.002Z,848.00
2019-04-28T08:52:49.027Z,876.00
2019-04-28T08:53:48.994Z,1108.00
2019-04-28T08:54:48.991Z,948.00
2019-04-28T08:55:48.970Z,784.00
2019-04-28T08:56:48.968Z,652.00
2019-04-28T08:57:48.966Z,704.00
2019-04-28T08:58:48.959Z,640.00
2019-04-28T08:59:48.953Z,584.00
2019-04-28T09:00:48.960Z,652.00
2019-04-28T09:01:48.940Z,828.00
2019-04-28T09:02:49.976Z,1160.00
2019-04-28T09:03:49.045Z,1144.00
2019-04-28T09:04:48.928Z,1040.00
2019-04-28T09:05:48.919Z,1016.00
2019-04-28T09:06:48.912Z,1068.00
2019-04-28T09:07:48.907Z,900.00
2019-04-28T09:08:48.898Z,856.00
2019-04-28T09:09:48.911Z,824.00
2019-04-28T09:10:48.883Z,668.00
2019-04-28T09:11:48.885Z,768.00
2019-04-28T09:12:48.897Z,1052.00
2019-04-28T09:13:48.873Z,1192.00
2019-04-28T09:14:48.861Z,1328.00
2019-04-28T09:15:48.861Z,1272.00
2019-04-28T09:16:48.866Z,1312.00
2019-04-28T09:17:48.852Z,1316.00
2019-04-28T09:18:48.850Z,1392.00
2019-04-28T09:19:48.837Z,1420.00
2019-04-28T09:20:48.852Z,1408.00
2019-04-28T09:21:48.825Z,1368.00
2019-04-28T09:22:48.821Z,1316.00
2019-04-28T09:23:48.818Z,1300.00
2019-04-28T09:24:48.815Z,1308.00
2019-04-28T09:25:48.824Z,1316.00
2019-04-28T09:26:48.803Z,1376.00
2019-04-28T09:27:48.795Z,1444.00
2019-04-28T09:28:48.792Z,1452.00
2019-04-28T09:29:48.782Z,1348.00
2019-04-28T09:30:48.775Z,1168.00
2019-04-28T09:31:48.769Z,1072.00
2019-04-28T09:32:48.839Z,1032.00
2019-04-28T09:33:48.753Z,1008.00
2019-04-28T09:34:48.749Z,964.00
2019-04-28T09:35:48.755Z,908.00
2019-04-28T09:36:48.768Z,856.00
2019-04-28T09:37:48.737Z,796.00
2019-04-28T09:38:48.733Z,740.00
2019-04-28T09:39:48.723Z,752.00
2019-04-28T09:40:48.725Z,668.00
2019-04-28T09:41:48.744Z,768.00
2019-04-28T09:42:48.711Z,940.00
2019-04-28T09:43:48.718Z,900.00
2019-04-28T09:44:48.707Z,960.00
2019-04-28T09:45:48.686Z,948.00
2019-04-28T09:46:48.686Z,960.00
2019-04-28T09:47:48.690Z,1000.00
2019-04-28T09:48:48.676Z,1148.00
2019-04-28T09:49:48.670Z,1124.00
2019-04-28T09:50:48.663Z,1108.00
2019-04-28T09:51:48.656Z,1152.00
2019-04-28T09:52:48.949Z,1280.00
2019-04-28T09:53:48.661Z,1428.00
2019-04-28T09:54:48.637Z,1572.00
2019-04-28T09:55:48.643Z,1700.00
2019-04-28T09:56:56.431Z,1684.00
2019-04-28T09:57:48.629Z,1616.00
2019-04-28T09:58:48.629Z,1568.00
2019-04-28T09:59:48.646Z,1408.00
2019-04-28T10:00:48.614Z,1380.00
2019-04-28T10:01:48.618Z,1304.00
2019-04-28T10:02:48.637Z,1244.00
2019-04-28T10:03:48.594Z,1292.00
2019-04-28T10:04:48.582Z,1384.00
2019-04-28T10:05:48.578Z,1196.00
2019-04-28T10:06:48.583Z,1120.00
2019-04-28T10:07:48.571Z,1208.00
2019-04-28T10:08:48.568Z,1332.00
2019-04-28T10:09:48.580Z,1320.00
2019-04-28T10:10:48.554Z,1156.00
2019-04-28T10:11:48.547Z,1032.00
2019-04-28T10:12:48.541Z,1052.00
2019-04-28T10:13:48.534Z,1112.00
2019-04-28T10:14:48.528Z,1136.00
2019-04-28T10:15:48.530Z,1152.00
2019-04-28T10:16:48.530Z,1028.00
2019-04-28T10:17:48.514Z,1020.00
2019-04-28T10:18:48.709Z,1104.00
2019-04-28T10:19:48.514Z,1076.00
2019-04-28T10:20:48.505Z,1184.00
2019-04-28T10:21:48.499Z,1284.00
2019-04-28T10:22:48.491Z,1420.00
2019-04-28T10:23:48.489Z,1428.00
2019-04-28T10:24:48.478Z,1440.00
2019-04-28T10:25:48.473Z,1392.00
2019-04-28T10:26:48.466Z,1376.00
2019-04-28T10:27:48.584Z,1324.00
2019-04-28T10:28:48.464Z,1440.00
2019-04-28T10:29:48.455Z,1536.00
2019-04-28T10:30:48.451Z,1564.00
2019-04-28T10:31:48.438Z,1544.00
2019-04-28T10:32:48.454Z,1472.00
2019-04-28T10:33:48.448Z,1292.00
2019-04-28T10:34:54.789Z,1496.00
2019-04-28T10:35:48.424Z,1472.00
2019-04-28T10:36:48.463Z,1476.00
2019-04-28T10:37:48.533Z,1612.00
2019-04-28T10:38:48.406Z,1648.00
2019-04-28T10:39:48.403Z,1632.00
2019-04-28T10:40:48.471Z,1584.00
2019-04-28T10:41:48.400Z,1588.00
2019-04-28T10:42:48.399Z,1580.00
2019-04-28T10:43:49.058Z,1572.00
2019-04-28T10:44:48.394Z,1548.00
2019-04-28T10:45:48.388Z,1516.00
2019-04-28T10:46:48.367Z,1352.00
2019-04-28T10:47:48.365Z,1284.00
2019-04-28T10:48:48.349Z,1256.00
2019-04-28T10:49:48.345Z,1308.00
2019-04-28T10:50:48.377Z,1488.00
2019-04-28T10:51:58.765Z,1624.00
2019-04-28T10:52:48.347Z,1636.00
2019-04-28T10:53:48.326Z,1560.00
2019-04-28T10:54:48.315Z,1420.00
2019-04-28T10:55:48.307Z,1288.00
2019-04-28T10:56:48.331Z,1204.00
2019-04-28T10:57:48.309Z,1044.00
2019-04-28T10:58:48.284Z,956.00
2019-04-28T10:59:48.291Z,832.00
2019-04-28T11:00:48.277Z,840.00
2019-04-28T11:01:48.276Z,828.00
2019-04-28T11:02:48.352Z,792.00
2019-04-28T11:03:48.273Z,772.00
2019-04-28T11:04:48.561Z,768.00
2019-04-28T11:05:48.263Z,740.00
2019-04-28T11:06:48.506Z,692.00
2019-04-28T11:07:48.813Z,600.00
2019-04-28T11:08:48.220Z,580.00
2019-04-28T11:09:48.220Z,564.00
2019-04-28T11:10:48.232Z,516.00
2019-04-28T11:11:48.211Z,484.00
2019-04-28T11:12:48.199Z,464.00
2019-04-28T11:13:48.422Z,480.00
2019-04-28T11:14:48.201Z,512.00
2019-04-28T11:15:49.690Z,528.00
2019-04-28T11:16:48.565Z,544.00
2019-04-28T11:17:48.214Z,588.00
2019-04-28T11:18:48.150Z,600.00
2019-04-28T11:19:48.150Z,584.00
2019-04-28T11:20:48.153Z,588.00
2019-04-28T11:21:48.131Z,624.00
2019-04-28T11:22:48.133Z,636.00
2019-04-28T11:23:48.173Z,608.00
2019-04-28T11:24:48.157Z,568.00
2019-04-28T11:25:48.115Z,528.00
2019-04-28T11:26:48.114Z,496.00
2019-04-28T11:27:48.092Z,448.00
2019-04-28T11:28:48.086Z,404.00
2019-04-28T11:29:48.082Z,392.00
2019-04-28T11:30:48.068Z,388.00
2019-04-28T11:31:48.065Z,420.00
2019-04-28T11:32:48.063Z,476.00
2019-04-28T11:33:48.056Z,512.00
2019-04-28T11:34:48.046Z,528.00
2019-04-28T11:35:49.193Z,564.00
2019-04-28T11:36:48.023Z,628.00
2019-04-28T11:37:48.021Z,692.00
2019-04-28T11:38:48.017Z,764.00
2019-04-28T11:39:48.002Z,804.00
2019-04-28T11:40:47.999Z,880.00
2019-04-28T11:41:47.989Z,976.00
2019-04-28T11:42:47.980Z,1044.00
2019-04-28T11:43:47.984Z,1096.00
2019-04-28T11:44:47.971Z,1120.00
2019-04-28T11:45:47.969Z,1128.00
2019-04-28T11:46:47.959Z,1104.00
2019-04-28T11:47:47.943Z,1120.00
2019-04-28T11:48:47.934Z,1152.00
2019-04-28T11:49:47.947Z,1152.00
2019-04-28T11:50:47.935Z,1168.00
2019-04-28T11:51:47.925Z,1196.00
2019-04-28T11:52:47.921Z,1204.00
2019-04-28T11:53:47.900Z,1220.00
2019-04-28T11:54:47.894Z,1240.00
2019-04-28T11:55:47.895Z,1244.00
2019-04-28T11:56:47.898Z,1244.00
2019-04-28T11:57:47.883Z,1228.00
2019-04-28T11:58:47.868Z,1232.00
2019-04-28T11:59:47.861Z,1196.00
2019-04-28T12:00:47.848Z,1164.00
2019-04-28T12:01:47.841Z,1140.00
2019-04-28T12:02:47.835Z,1148.00
2019-04-28T12:03:47.838Z,1092.00
2019-04-28T12:04:47.826Z,1108.00
2019-04-28T12:05:47.851Z,1060.00
2019-04-28T12:06:47.811Z,956.00
2019-04-28T12:07:47.803Z,984.00
2019-04-28T12:08:47.805Z,1040.00
2019-04-28T12:09:47.793Z,1080.00
2019-04-28T12:10:47.784Z,1104.00
2019-04-28T12:11:47.769Z,1076.00
2019-04-28T12:12:47.820Z,1128.00
2019-04-28T12:13:47.757Z,1240.00
2019-04-28T12:14:47.749Z,1328.00
2019-04-28T12:15:47.744Z,1376.00
2019-04-28T12:16:47.745Z,1440.00
2019-04-28T12:17:47.732Z,1512.00
2019-04-28T12:18:47.723Z,1560.00
2019-04-28T12:19:47.726Z,1580.00
2019-04-28T12:20:47.713Z,1648.00
2019-04-28T12:21:47.698Z,1664.00
2019-04-28T12:22:47.691Z,1656.00
2019-04-28T12:23:47.691Z,1552.00
2019-04-28T12:24:47.678Z,1376.00
2019-04-28T12:25:47.680Z,1212.00
2019-04-28T12:26:47.659Z,956.00
2019-04-28T12:27:47.658Z,740.00
2019-04-28T12:28:47.652Z,648.00
2019-04-28T12:29:47.650Z,644.00
2019-04-28T12:30:47.639Z,684.00
2019-04-28T12:31:47.624Z,748.00
2019-04-28T12:32:47.639Z,788.00
2019-04-28T12:33:47.614Z,824.00
2019-04-28T12:34:47.614Z,792.00
2019-04-28T12:35:48.349Z,720.00
2019-04-28T12:36:49.974Z,656.00
2019-04-28T12:37:47.587Z,592.00
2019-04-28T12:38:47.578Z,532.00
2019-04-28T12:39:47.569Z,512.00
2019-04-28T12:40:47.557Z,480.00
2019-04-28T12:41:47.557Z,420.00
2019-04-28T12:42:47.555Z,408.00